createdAt,value
2022-09-22T00:01:18.043Z,4.12
2022-09-22T00:03:47.093Z,3.92
2022-09-22T00:06:16.453Z,4.01
2022-09-22T00:08:46.185Z,4.54
2022-09-22T00:11:20.812Z,4.58
2022-09-22T00:13:51.258Z,4.05
2022-09-22T00:16:25.274Z,4.27
2022-09-22T00:18:52.003Z,4.32
2022-09-22T00:21:20.547Z,4.42
2022-09-22T00:23:47.691Z,4.28
2022-09-22T00:26:19.847Z,4.25
2022-09-22T00:28:48.017Z,4.40
2022-09-22T00:31:18.844Z,4.35
2022-09-22T00:33:46.342Z,4.17
2022-09-22T00:36:14.661Z,4.27
2022-09-22T00:38:42.471Z,3.79
2022-09-22T00:41:17.750Z,2.96
2022-09-22T00:43:47.819Z,4.26
2022-09-22T00:46:21.453Z,4.33
2022-09-22T00:48:52.979Z,4.00
2022-09-22T00:51:23.650Z,3.73
2022-09-22T00:53:52.327Z,3.99
2022-09-22T00:56:25.267Z,3.76
2022-09-22T00:58:58.654Z,3.90
2022-09-22T01:01:25.492Z,3.50
2022-09-22T01:03:52.587Z,3.95
2022-09-22T01:06:26.392Z,3.63
2022-09-22T01:08:54.590Z,1.93
2022-09-22T01:11:21.745Z,3.67
2022-09-22T01:14:28.189Z,3.82
2022-09-22T01:17:00.865Z,3.85
2022-09-22T01:19:33.373Z,3.90
2022-09-22T01:22:18.710Z,3.86
2022-09-22T01:25:03.636Z,3.82
2022-09-22T01:27:37.132Z,3.83
2022-09-22T01:30:17.335Z,3.87
2022-09-22T01:32:43.970Z,3.86
2022-09-22T01:35:27.737Z,3.69
2022-09-22T01:38:09.184Z,3.31
2022-09-22T01:41:00.228Z,3.65
2022-09-22T01:43:37.729Z,3.37
2022-09-22T01:46:12.238Z,3.11
2022-09-22T01:48:42.894Z,2.92
2022-09-22T01:51:18.532Z,3.20
2022-09-22T01:53:53.512Z,3.39
2022-09-22T01:56:22.666Z,2.98
2022-09-22T01:58:54.389Z,3.51
2022-09-22T02:01:29.019Z,3.20
2022-09-22T02:04:18.417Z,3.58
2022-09-22T02:06:51.017Z,3.22
2022-09-22T02:09:21.427Z,3.49
2022-09-22T02:11:48.623Z,3.21
2022-09-22T02:14:16.504Z,3.13
2022-09-22T02:16:43.161Z,3.00
2022-09-22T02:19:13.640Z,3.47
2022-09-22T02:21:43.176Z,3.25
2022-09-22T02:24:32.321Z,3.48
2022-09-22T02:27:02.470Z,3.07
2022-09-22T02:29:32.301Z,3.36
2022-09-22T02:32:02.584Z,2.88
2022-09-22T02:34:29.347Z,2.88
2022-09-22T02:37:20.795Z,3.16
2022-09-22T02:40:04.852Z,3.06
2022-09-22T02:42:34.693Z,3.26
2022-09-22T02:45:17.263Z,3.28
2022-09-22T02:47:47.616Z,2.81
2022-09-22T02:50:18.033Z,2.32
2022-09-22T02:52:44.823Z,2.78
2022-09-22T02:55:13.734Z,1.40
2022-09-22T02:57:40.481Z,2.86
2022-09-22T03:00:07.641Z,2.66
2022-09-22T03:02:34.341Z,2.51
2022-09-22T03:05:01.179Z,2.41
2022-09-22T03:07:28.297Z,2.47
2022-09-22T03:09:54.919Z,1.09
2022-09-22T03:12:21.622Z,1.44
2022-09-22T03:14:48.290Z,2.91
2022-09-22T03:17:15.027Z,2.58
2022-09-22T03:19:41.805Z,2.93
2022-09-22T03:22:08.509Z,1.89
2022-09-22T03:24:35.088Z,2.78
2022-09-22T03:27:01.723Z,2.45
2022-09-22T03:29:28.369Z,2.82
2022-09-22T03:31:55.053Z,2.91
2022-09-22T03:34:21.635Z,2.46
2022-09-22T03:36:48.584Z,1.45
2022-09-22T03:39:15.145Z,2.64
2022-09-22T03:41:41.821Z,2.46
2022-09-22T03:44:08.487Z,2.20
2022-09-22T03:46:35.102Z,2.68
2022-09-22T03:49:01.727Z,2.36
2022-09-22T03:51:31.267Z,2.62
2022-09-22T03:53:57.961Z,2.60
2022-09-22T03:56:24.677Z,2.64
2022-09-22T03:58:51.353Z,2.79
2022-09-22T04:01:18.197Z,2.48
2022-09-22T04:03:45.036Z,2.11
2022-09-22T04:06:12.175Z,0.30
2022-09-22T04:08:38.908Z,2.55
2022-09-22T04:11:06.285Z,2.70
2022-09-22T04:13:33.138Z,1.97
2022-09-22T04:16:00.087Z,2.42
2022-09-22T04:18:26.760Z,2.70
2022-09-22T04:20:56.689Z,2.52
2022-09-22T04:23:23.812Z,0.75
2022-09-22T04:25:50.554Z,2.37
2022-09-22T04:28:17.168Z,2.29
2022-09-22T04:30:43.835Z,1.18
2022-09-22T04:33:11.084Z,2.14
2022-09-22T04:35:38.047Z,0.12
2022-09-22T04:38:04.810Z,0.47
2022-09-22T04:40:31.661Z,1.84
2022-09-22T04:42:58.506Z,2.49
2022-09-22T04:45:25.355Z,2.08
2022-09-22T04:47:53.140Z,2.22
2022-09-22T04:50:21.769Z,2.36
2022-09-22T04:52:51.582Z,2.16
2022-09-22T04:55:18.296Z,2.13
2022-09-22T04:57:49.235Z,2.46
2022-09-22T05:00:17.146Z,1.97
2022-09-22T05:02:43.900Z,2.54
2022-09-22T05:05:11.228Z,2.16
2022-09-22T05:07:42.258Z,1.98
2022-09-22T05:10:09.600Z,1.11
2022-09-22T05:12:44.603Z,1.08
2022-09-22T05:15:13.171Z,2.35
2022-09-22T05:17:47.341Z,2.48
2022-09-22T05:20:14.817Z,2.58
2022-09-22T05:22:43.321Z,2.80
2022-09-22T05:25:12.514Z,2.87
2022-09-22T05:27:51.261Z,2.28
2022-09-22T05:30:19.686Z,2.18
2022-09-22T05:32:47.878Z,2.47
2022-09-22T05:35:17.560Z,2.47
2022-09-22T05:37:46.087Z,2.48
2022-09-22T05:40:13.957Z,2.76
2022-09-22T05:42:45.277Z,2.46
2022-09-22T05:45:12.420Z,2.87
2022-09-22T05:47:39.979Z,2.62
2022-09-22T05:50:08.199Z,1.41
2022-09-22T05:52:35.081Z,1.44
2022-09-22T05:55:01.990Z,0.08
2022-09-22T05:57:28.578Z,0.46
2022-09-22T05:59:58.450Z,1.98
2022-09-22T06:02:26.643Z,1.57
2022-09-22T06:04:54.119Z,2.45
2022-09-22T06:07:21.952Z,2.59
2022-09-22T06:09:49.230Z,2.36
2022-09-22T06:12:16.703Z,2.47
2022-09-22T06:14:44.106Z,2.86
2022-09-22T06:17:12.309Z,3.24
2022-09-22T06:19:39.653Z,2.96
2022-09-22T06:22:07.148Z,3.08
2022-09-22T06:24:33.764Z,1.08
2022-09-22T06:27:00.356Z,2.85
2022-09-22T06:29:27.186Z,1.47
2022-09-22T06:31:54.136Z,2.08
2022-09-22T06:34:21.126Z,2.56
2022-09-22T06:36:48.178Z,2.89
2022-09-22T06:39:14.985Z,2.46
2022-09-22T06:41:41.569Z,2.32
2022-09-22T06:44:09.422Z,2.76
2022-09-22T06:46:35.998Z,3.18
2022-09-22T06:49:02.664Z,3.03
2022-09-22T06:51:33.810Z,3.39
2022-09-22T06:54:02.290Z,2.81
2022-09-22T06:56:29.325Z,3.36
2022-09-22T06:59:09.839Z,3.52
2022-09-22T07:01:38.235Z,3.69
2022-09-22T07:04:05.465Z,3.42
2022-09-22T07:06:32.574Z,2.82
2022-09-22T07:08:59.532Z,3.95
2022-09-22T07:11:27.851Z,4.13
2022-09-22T07:13:55.246Z,4.25
2022-09-22T07:16:26.895Z,4.25
2022-09-22T07:18:57.872Z,4.47
2022-09-22T07:21:29.919Z,4.32
2022-09-22T07:23:58.125Z,4.05
2022-09-22T07:26:32.089Z,4.13
2022-09-22T07:29:02.779Z,4.67
2022-09-22T07:31:31.804Z,4.65
2022-09-22T07:33:59.308Z,4.24
2022-09-22T07:36:28.354Z,4.37
2022-09-22T07:38:57.517Z,4.87
2022-09-22T07:41:27.121Z,4.52
2022-09-22T07:43:55.953Z,4.80
2022-09-22T07:46:23.741Z,4.26
2022-09-22T07:48:51.449Z,5.13
2022-09-22T07:51:23.695Z,5.09
2022-09-22T07:53:54.624Z,5.15
2022-09-22T07:56:21.561Z,4.59
2022-09-22T07:58:53.026Z,5.27
2022-09-22T08:01:23.214Z,5.43
2022-09-22T08:03:50.735Z,4.18
2022-09-22T08:06:19.364Z,3.75
2022-09-22T08:08:48.406Z,5.65
2022-09-22T08:11:28.782Z,5.66
2022-09-22T08:14:01.676Z,3.88
2022-09-22T08:16:31.179Z,6.11
2022-09-22T08:19:00.163Z,6.26
2022-09-22T08:21:28.740Z,6.41
2022-09-22T08:23:55.362Z,6.07
2022-09-22T08:26:22.923Z,6.80
2022-09-22T08:28:54.370Z,6.94
2022-09-22T08:31:22.377Z,5.59
2022-09-22T08:33:50.128Z,6.89
2022-09-22T08:36:17.216Z,7.05
2022-09-22T08:38:44.348Z,7.31
2022-09-22T08:41:35.568Z,8.09
2022-09-22T08:44:17.816Z,7.82
2022-09-22T08:46:46.885Z,8.18
2022-09-22T08:49:19.699Z,8.28
2022-09-22T08:51:52.831Z,7.88
2022-09-22T08:54:24.299Z,7.88
2022-09-22T08:57:08.375Z,8.70
2022-09-22T08:59:55.451Z,9.25
2022-09-22T09:02:49.196Z,8.97
2022-09-22T09:05:37.648Z,8.97
2022-09-22T09:08:26.219Z,9.42
2022-09-22T09:10:56.093Z,9.81
2022-09-22T09:14:00.431Z,10.55
2022-09-22T09:16:41.626Z,10.46
2022-09-22T09:19:34.595Z,9.50
2022-09-22T09:22:06.883Z,10.18
2022-09-22T09:27:42.005Z,10.86
2022-09-22T09:30:21.742Z,11.15
2022-09-22T09:33:02.000Z,11.65
2022-09-22T09:35:42.251Z,11.05
2022-09-22T09:38:12.765Z,11.44
2022-09-22T09:40:39.528Z,10.01
2022-09-22T09:43:07.477Z,11.33
2022-09-22T09:46:12.934Z,11.87
2022-09-22T09:49:06.848Z,12.08
2022-09-22T09:51:41.296Z,12.06
2022-09-22T09:54:16.024Z,12.02
2022-09-22T09:57:18.306Z,12.17
2022-09-22T09:59:47.451Z,12.14
2022-09-22T10:02:27.851Z,12.37
2022-09-22T10:05:02.131Z,11.91
2022-09-22T10:10:37.458Z,12.73
2022-09-22T10:13:04.576Z,12.81
2022-09-22T10:15:36.651Z,12.96
2022-09-22T10:18:24.526Z,12.56
2022-09-22T10:21:18.773Z,12.84
2022-09-22T10:23:50.845Z,12.64
2022-09-22T10:26:24.922Z,13.53
2022-09-22T10:29:09.829Z,14.22
2022-09-22T10:31:36.676Z,13.73
2022-09-22T10:34:03.748Z,13.20
2022-09-22T10:36:30.700Z,13.43
2022-09-22T10:38:59.718Z,13.65
2022-09-22T10:41:31.811Z,14.36
2022-09-22T10:44:39.452Z,14.71
2022-09-22T10:47:12.895Z,14.64
2022-09-22T10:49:56.358Z,13.99
2022-09-22T10:52:35.380Z,14.04
2022-09-22T10:55:17.229Z,14.19
2022-09-22T10:58:12.840Z,14.09
2022-09-22T11:00:41.529Z,14.07
2022-09-22T11:03:43.875Z,14.12
2022-09-22T11:06:41.577Z,14.27
2022-09-22T11:09:34.291Z,14.17
2022-09-22T11:12:29.513Z,14.47
2022-09-22T11:15:14.377Z,14.58
2022-09-22T11:17:56.614Z,13.95
2022-09-22T11:20:59.718Z,14.71
2022-09-22T11:24:00.030Z,15.12
2022-09-22T11:26:48.207Z,15.15
2022-09-22T11:29:46.009Z,14.83
2022-09-22T11:32:33.791Z,13.92
2022-09-22T11:35:03.604Z,14.49
2022-09-22T11:37:57.654Z,14.77
2022-09-22T11:40:40.611Z,14.57
2022-09-22T11:43:19.681Z,14.51
2022-09-22T11:46:01.416Z,14.61
2022-09-22T11:48:45.180Z,14.17
2022-09-22T11:51:36.790Z,14.71
2022-09-22T11:54:15.807Z,14.99
2022-09-22T11:56:47.186Z,14.58
2022-09-22T11:59:28.031Z,14.54
2022-09-22T12:01:58.774Z,14.28
2022-09-22T12:04:44.577Z,13.94
2022-09-22T12:07:21.976Z,13.99
2022-09-22T12:09:57.164Z,13.96
2022-09-22T12:12:24.645Z,13.95
2022-09-22T12:15:32.714Z,14.12
2022-09-22T12:18:40.913Z,14.68
2022-09-22T12:21:31.859Z,15.04
2022-09-22T12:24:09.117Z,15.14
2022-09-22T12:26:46.154Z,14.41
2022-09-22T12:29:16.139Z,14.77
2022-09-22T12:31:45.551Z,14.21
2022-09-22T12:34:39.487Z,14.54
2022-09-22T12:37:17.485Z,14.49
2022-09-22T12:39:48.341Z,14.55
2022-09-22T12:42:35.448Z,14.64
2022-09-22T12:45:09.927Z,15.31
2022-09-22T12:47:42.031Z,14.85
2022-09-22T12:50:24.288Z,15.90
2022-09-22T12:52:50.869Z,15.70
2022-09-22T12:55:21.866Z,14.98
2022-09-22T12:57:51.046Z,15.83
2022-09-22T13:00:37.783Z,15.99
2022-09-22T13:03:26.355Z,16.12
2022-09-22T13:05:55.550Z,16.38
2022-09-22T13:08:42.087Z,16.66
2022-09-22T13:11:09.745Z,16.61
2022-09-22T13:13:47.316Z,16.12
2022-09-22T13:16:14.062Z,16.56
2022-09-22T13:18:44.848Z,16.89
2022-09-22T13:21:14.600Z,16.93
2022-09-22T13:23:53.627Z,16.89
2022-09-22T13:26:35.683Z,16.17
2022-09-22T13:29:07.173Z,17.17
2022-09-22T13:31:54.578Z,16.66
2022-09-22T13:34:33.313Z,17.14
2022-09-22T13:37:04.660Z,17.25
2022-09-22T13:39:36.929Z,16.72
2022-09-22T13:42:12.495Z,16.28
2022-09-22T13:44:42.115Z,16.12
2022-09-22T13:47:22.886Z,16.07
2022-09-22T13:49:55.230Z,16.23
2022-09-22T13:52:26.254Z,15.84
2022-09-22T13:54:59.274Z,16.21
2022-09-22T13:57:31.608Z,15.82
2022-09-22T13:59:59.665Z,15.89
2022-09-22T14:02:31.505Z,15.95
2022-09-22T14:05:06.549Z,16.21
2022-09-22T14:07:49.616Z,15.52
2022-09-22T14:10:23.362Z,15.66
2022-09-22T14:12:49.968Z,15.58
2022-09-22T14:15:37.141Z,16.08
2022-09-22T14:18:27.377Z,16.52
2022-09-22T14:20:56.490Z,16.40
2022-09-22T14:23:31.366Z,16.48
2022-09-22T14:26:01.728Z,16.09
2022-09-22T14:28:33.762Z,16.12
2022-09-22T14:31:01.189Z,15.56
2022-09-22T14:33:33.326Z,15.62
2022-09-22T14:36:05.720Z,16.33
2022-09-22T14:38:45.882Z,16.19
2022-09-22T14:41:27.200Z,16.51
2022-09-22T14:43:54.304Z,15.74
2022-09-22T14:46:22.252Z,16.15
2022-09-22T14:48:48.952Z,16.59
2022-09-22T14:51:19.548Z,16.19
2022-09-22T14:54:12.137Z,16.69
2022-09-22T14:56:43.735Z,16.42
2022-09-22T14:59:17.308Z,15.85
2022-09-22T15:01:48.439Z,16.59
2022-09-22T15:04:23.022Z,16.00
2022-09-22T15:06:51.780Z,16.00
2022-09-22T15:09:29.097Z,16.35
2022-09-22T15:12:01.161Z,15.95
2022-09-22T15:14:36.565Z,17.15
2022-09-22T15:17:36.998Z,17.40
2022-09-22T15:20:04.108Z,16.69
2022-09-22T15:22:30.897Z,16.80
2022-09-22T15:24:58.343Z,16.59
2022-09-22T15:27:25.208Z,16.36
2022-09-22T15:29:52.103Z,15.93
2022-09-22T15:32:18.756Z,15.89
2022-09-22T15:34:45.708Z,15.83
2022-09-22T15:37:19.753Z,15.72
2022-09-22T15:39:46.388Z,15.81
2022-09-22T15:42:13.171Z,16.23
2022-09-22T15:44:40.655Z,16.42
2022-09-22T15:47:13.987Z,16.14
2022-09-22T15:49:41.168Z,16.05
2022-09-22T15:52:09.317Z,15.92
2022-09-22T15:54:36.466Z,16.51
2022-09-22T15:57:05.361Z,15.79
2022-09-22T15:59:33.327Z,16.76
2022-09-22T16:02:00.233Z,16.41
2022-09-22T16:04:27.827Z,15.71
2022-09-22T16:07:06.688Z,14.83
2022-09-22T16:09:36.705Z,14.58
2022-09-22T16:12:03.485Z,14.06
2022-09-22T16:14:30.300Z,14.62
2022-09-22T16:16:56.925Z,14.11
2022-09-22T16:19:24.101Z,14.53
2022-09-22T16:21:52.947Z,14.56
2022-09-22T16:24:21.082Z,14.67
2022-09-22T16:26:47.928Z,14.57
2022-09-22T16:29:14.816Z,14.57
2022-09-22T16:31:41.626Z,14.64
2022-09-22T16:34:09.009Z,14.46
2022-09-22T16:36:36.413Z,14.51
2022-09-22T16:39:04.237Z,14.99
2022-09-22T16:41:32.625Z,14.71
2022-09-22T16:44:00.672Z,15.14
2022-09-22T16:46:29.281Z,15.17
2022-09-22T16:48:59.459Z,15.04
2022-09-22T16:51:30.256Z,15.22
2022-09-22T16:53:57.512Z,14.81
2022-09-22T16:56:29.704Z,14.53
2022-09-22T16:58:57.252Z,14.94
2022-09-22T17:01:24.348Z,14.70
2022-09-22T17:03:51.843Z,14.85
2022-09-22T17:06:20.432Z,14.67
2022-09-22T17:08:47.287Z,14.30
2022-09-22T17:11:14.844Z,14.25
2022-09-22T17:13:42.697Z,14.02
2022-09-22T17:16:24.858Z,14.06
2022-09-22T17:18:52.590Z,14.08
2022-09-22T17:21:19.993Z,13.48
2022-09-22T17:23:47.405Z,13.25
2022-09-22T17:26:14.686Z,12.99
2022-09-22T17:28:41.479Z,12.84
2022-09-22T17:31:09.859Z,12.93
2022-09-22T17:33:38.657Z,12.75
2022-09-22T17:36:06.198Z,12.58
2022-09-22T17:38:36.897Z,12.61
2022-09-22T17:41:08.239Z,12.81
2022-09-22T17:43:36.080Z,12.20
2022-09-22T17:46:03.446Z,11.93
2022-09-22T17:48:30.731Z,12.16
2022-09-22T17:50:57.626Z,11.71
2022-09-22T17:53:24.363Z,11.40
2022-09-22T17:55:52.093Z,11.13
2022-09-22T17:58:18.889Z,11.65
2022-09-22T18:00:46.173Z,11.77
2022-09-22T18:03:13.585Z,11.69
2022-09-22T18:05:42.820Z,11.31
2022-09-22T18:08:10.340Z,11.07
2022-09-22T18:10:38.170Z,10.91
2022-09-22T18:13:05.932Z,11.29
2022-09-22T18:15:32.687Z,10.37
2022-09-22T18:18:02.337Z,10.74
2022-09-22T18:20:29.813Z,10.97
2022-09-22T18:22:57.091Z,9.66
2022-09-22T18:25:30.806Z,10.59
2022-09-22T18:28:30.867Z,10.53
2022-09-22T18:30:58.073Z,10.20
2022-09-22T18:33:25.917Z,10.24
2022-09-22T18:35:53.795Z,10.20
2022-09-22T18:38:20.905Z,9.63
2022-09-22T18:40:47.864Z,9.42
2022-09-22T18:43:15.290Z,9.46
2022-09-22T18:45:42.302Z,9.85
2022-09-22T18:48:09.436Z,10.08
2022-09-22T18:50:36.475Z,10.04
2022-09-22T18:53:04.135Z,9.07
2022-09-22T18:55:31.295Z,9.42
2022-09-22T18:57:58.137Z,9.73
2022-09-22T19:00:25.052Z,9.05
2022-09-22T19:02:52.041Z,9.19
2022-09-22T19:05:19.456Z,9.59
2022-09-22T19:10:38.553Z,9.08
2022-09-22T19:13:05.290Z,8.48
2022-09-22T19:15:37.019Z,8.97
2022-09-22T19:18:04.317Z,8.85
2022-09-22T19:20:30.952Z,8.30
2022-09-22T19:22:57.668Z,8.46
2022-09-22T19:25:24.525Z,8.30
2022-09-22T19:27:52.795Z,7.78
2022-09-22T19:30:23.358Z,8.93
2022-09-22T19:32:52.748Z,8.99
2022-09-22T19:35:20.100Z,8.50
2022-09-22T19:37:47.560Z,9.07
2022-09-22T19:40:14.849Z,8.87
2022-09-22T19:42:44.561Z,8.76
2022-09-22T19:45:11.574Z,8.93
2022-09-22T19:47:38.902Z,8.60
2022-09-22T19:50:06.481Z,8.40
2022-09-22T19:52:36.987Z,8.85
2022-09-22T19:55:08.520Z,9.04
2022-09-22T19:57:35.409Z,9.03
2022-09-22T20:00:02.077Z,8.42
2022-09-22T20:02:38.354Z,8.71
2022-09-22T20:05:10.577Z,8.83
2022-09-22T20:07:37.461Z,8.59
2022-09-22T20:10:04.964Z,8.52
2022-09-22T20:12:31.702Z,8.31
2022-09-22T20:14:58.491Z,8.59
2022-09-22T20:17:25.383Z,8.24
2022-09-22T20:19:51.969Z,8.02
2022-09-22T20:22:24.403Z,8.40
2022-09-22T20:24:53.403Z,8.03
2022-09-22T20:27:25.169Z,7.60
2022-09-22T20:29:56.837Z,6.32
2022-09-22T20:32:25.486Z,7.53
2022-09-22T20:34:53.619Z,7.91
2022-09-22T20:37:20.371Z,7.73
2022-09-22T20:39:47.127Z,7.86
2022-09-22T20:42:13.938Z,7.71
2022-09-22T20:44:40.501Z,7.87
2022-09-22T20:47:19.232Z,7.63
2022-09-22T20:49:50.824Z,7.71
2022-09-22T20:52:19.720Z,8.01
2022-09-22T20:54:46.561Z,7.67
2022-09-22T20:57:13.591Z,7.63
2022-09-22T20:59:40.198Z,7.78
2022-09-22T21:02:07.088Z,7.37
2022-09-22T21:04:33.990Z,7.79
2022-09-22T21:07:00.641Z,6.91
2022-09-22T21:09:27.289Z,7.66
2022-09-22T21:11:53.949Z,7.04
2022-09-22T21:14:20.566Z,7.42
2022-09-22T21:16:47.716Z,7.45
2022-09-22T21:19:14.894Z,7.08
2022-09-22T21:21:41.784Z,6.89
2022-09-22T21:24:09.234Z,7.06
2022-09-22T21:26:40.983Z,6.54
2022-09-22T21:29:08.396Z,5.08
2022-09-22T21:31:35.204Z,5.07
2022-09-22T21:34:01.942Z,4.05
2022-09-22T21:36:28.589Z,5.01
2022-09-22T21:38:57.731Z,6.95
2022-09-22T21:41:27.215Z,6.15
2022-09-22T21:43:54.908Z,5.25
2022-09-22T21:46:24.443Z,6.74
2022-09-22T21:48:56.857Z,6.83
2022-09-22T21:51:23.583Z,6.38
2022-09-22T21:53:54.520Z,6.54
2022-09-22T21:56:23.771Z,5.27
2022-09-22T21:58:52.736Z,6.85
2022-09-22T22:01:22.868Z,5.40
2022-09-22T22:03:51.664Z,4.66
2022-09-22T22:06:21.047Z,6.70
2022-09-22T22:08:54.131Z,6.75
2022-09-22T22:11:26.029Z,6.76
2022-09-22T22:13:55.049Z,5.79
2022-09-22T22:16:27.444Z,5.95
2022-09-22T22:18:54.088Z,6.18
2022-09-22T22:21:23.840Z,4.83
2022-09-22T22:23:55.845Z,6.40
2022-09-22T22:26:24.951Z,6.11
2022-09-22T22:28:52.782Z,6.37
2022-09-22T22:31:23.148Z,6.37
2022-09-22T22:33:50.487Z,6.23
2022-09-22T22:36:18.574Z,6.32
2022-09-22T22:38:45.936Z,6.20
2022-09-22T22:41:15.109Z,5.65
2022-09-22T22:43:42.615Z,6.35
2022-09-22T22:46:11.076Z,6.43
2022-09-22T22:48:37.974Z,6.28
2022-09-22T22:51:09.548Z,6.51
2022-09-22T22:53:36.198Z,5.65
2022-09-22T22:56:06.266Z,5.84
2022-09-22T22:58:35.562Z,6.52
2022-09-22T23:01:03.667Z,6.59
2022-09-22T23:03:30.445Z,6.58
2022-09-22T23:05:58.855Z,6.50
2022-09-22T23:08:29.658Z,6.42
2022-09-22T23:11:04.620Z,5.58
2022-09-22T23:13:32.995Z,5.97
2022-09-22T23:16:04.871Z,6.27
2022-09-22T23:18:33.041Z,5.85
2022-09-22T23:20:59.659Z,5.33
2022-09-22T23:23:26.329Z,5.85
2022-09-22T23:25:53.053Z,5.38
2022-09-22T23:28:20.278Z,5.85
2022-09-22T23:30:46.872Z,5.57
2022-09-22T23:33:13.671Z,5.34
2022-09-22T23:35:40.407Z,5.38
2022-09-22T23:38:09.051Z,4.99
2022-09-22T23:40:36.079Z,5.35
2022-09-22T23:43:02.959Z,5.18
2022-09-22T23:45:29.541Z,4.43
2022-09-22T23:47:56.280Z,4.69
2022-09-22T23:50:22.869Z,4.94
2022-09-22T23:52:49.641Z,3.20
2022-09-22T23:55:16.318Z,3.11
2022-09-22T23:57:42.987Z,4.85
